sensor_id;sensor_type;location;lat;lon;timestamp;P1;durP1;ratioP1;P2;durP2;ratioP2
16957;SDS011;8595;52.542;11.974;2023-02-28T00:00:46;14.73;;;9.00;;
16957;SDS011;8595;52.542;11.974;2023-02-28T00:03:13;12.47;;;9.30;;
16957;SDS011;8595;52.542;11.974;2023-02-28T00:05:41;12.73;;;8.60;;
16957;SDS011;8595;52.542;11.974;2023-02-28T00:08:08;12.43;;;8.50;;
16957;SDS011;8595;52.542;11.974;2023-02-28T00:10:35;10.47;;;7.47;;
16957;SDS011;8595;52.542;11.974;2023-02-28T00:13:03;11.57;;;7.90;;
16957;SDS011;8595;52.542;11.974;2023-02-28T00:15:31;10.87;;;7.23;;
16957;SDS011;8595;52.542;11.974;2023-02-28T00:17:58;10.23;;;6.77;;
16957;SDS011;8595;52.542;11.974;2023-02-28T00:20:24;9.50;;;6.83;;
16957;SDS011;8595;52.542;11.974;2023-02-28T00:22:53;7.97;;;6.07;;
16957;SDS011;8595;52.542;11.974;2023-02-28T00:25:22;9.27;;;6.40;;
16957;SDS011;8595;52.542;11.974;2023-02-28T00:27:51;8.67;;;6.40;;
16957;SDS011;8595;52.542;11.974;2023-02-28T00:30:19;7.73;;;6.27;;
16957;SDS011;8595;52.542;11.974;2023-02-28T00:32:47;13.00;;;7.60;;
16957;SDS011;8595;52.542;11.974;2023-02-28T00:35:14;11.97;;;8.03;;
16957;SDS011;8595;52.542;11.974;2023-02-28T00:37:41;11.60;;;7.67;;
16957;SDS011;8595;52.542;11.974;2023-02-28T00:40:10;11.37;;;7.73;;
16957;SDS011;8595;52.542;11.974;2023-02-28T00:42:37;11.97;;;8.00;;
16957;SDS011;8595;52.542;11.974;2023-02-28T00:45:05;12.17;;;7.53;;
16957;SDS011;8595;52.542;11.974;2023-02-28T00:47:34;10.90;;;7.40;;
16957;SDS011;8595;52.542;11.974;2023-02-28T00:50:00;9.30;;;6.23;;
16957;SDS011;8595;52.542;11.974;2023-02-28T00:52:28;8.80;;;6.03;;
16957;SDS011;8595;52.542;11.974;2023-02-28T00:54:54;8.67;;;5.80;;
16957;SDS011;8595;52.542;11.974;2023-02-28T00:57:23;8.23;;;6.17;;
16957;SDS011;8595;52.542;11.974;2023-02-28T00:59:49;9.07;;;6.33;;
16957;SDS011;8595;52.542;11.974;2023-02-28T01:02:19;10.50;;;6.00;;
16957;SDS011;8595;52.542;11.974;2023-02-28T01:04:46;8.33;;;6.20;;
16957;SDS011;8595;52.542;11.974;2023-02-28T01:07:13;9.33;;;6.17;;
16957;SDS011;8595;52.542;11.974;2023-02-28T01:09:40;10.80;;;7.03;;
16957;SDS011;8595;52.542;11.974;2023-02-28T01:12:07;15.47;;;8.00;;
16957;SDS011;8595;52.542;11.974;2023-02-28T01:14:35;11.60;;;7.67;;
16957;SDS011;8595;52.542;11.974;2023-02-28T01:17:02;21.77;;;10.53;;
16957;SDS011;8595;52.542;11.974;2023-02-28T01:19:29;23.57;;;11.67;;
16957;SDS011;8595;52.542;11.974;2023-02-28T01:21:56;23.40;;;11.67;;
16957;SDS011;8595;52.542;11.974;2023-02-28T01:24:23;18.80;;;10.13;;
16957;SDS011;8595;52.542;11.974;2023-02-28T01:26:49;16.53;;;9.13;;
16957;SDS011;8595;52.542;11.974;2023-02-28T01:29:16;15.70;;;8.10;;
16957;SDS011;8595;52.542;11.974;2023-02-28T01:31:44;12.77;;;8.17;;
16957;SDS011;8595;52.542;11.974;2023-02-28T01:34:11;11.00;;;6.97;;
16957;SDS011;8595;52.542;11.974;2023-02-28T01:36:38;13.23;;;7.80;;
16957;SDS011;8595;52.542;11.974;2023-02-28T01:39:05;9.20;;;5.90;;
16957;SDS011;8595;52.542;11.974;2023-02-28T01:41:32;6.57;;;5.27;;
16957;SDS011;8595;52.542;11.974;2023-02-28T01:44:03;7.03;;;5.73;;
16957;SDS011;8595;52.542;11.974;2023-02-28T01:46:32;7.07;;;5.70;;
16957;SDS011;8595;52.542;11.974;2023-02-28T01:49:06;9.40;;;6.57;;
16957;SDS011;8595;52.542;11.974;2023-02-28T01:51:39;9.13;;;5.87;;
16957;SDS011;8595;52.542;11.974;2023-02-28T01:54:11;9.53;;;6.50;;
16957;SDS011;8595;52.542;11.974;2023-02-28T01:56:43;9.87;;;6.50;;
16957;SDS011;8595;52.542;11.974;2023-02-28T01:59:12;7.90;;;5.37;;
16957;SDS011;8595;52.542;11.974;2023-02-28T02:01:43;9.27;;;6.03;;
16957;SDS011;8595;52.542;11.974;2023-02-28T02:04:12;9.97;;;5.60;;
16957;SDS011;8595;52.542;11.974;2023-02-28T02:06:40;9.47;;;5.93;;
16957;SDS011;8595;52.542;11.974;2023-02-28T02:09:09;10.17;;;6.20;;
16957;SDS011;8595;52.542;11.974;2023-02-28T02:11:36;6.40;;;5.33;;
16957;SDS011;8595;52.542;11.974;2023-02-28T02:22:56;6.40;;;5.17;;
16957;SDS011;8595;52.542;11.974;2023-02-28T02:25:47;14.07;;;6.20;;
16957;SDS011;8595;52.542;11.974;2023-02-28T02:31:26;9.10;;;5.43;;
16957;SDS011;8595;52.542;11.974;2023-02-28T02:36:57;6.93;;;5.20;;
16957;SDS011;8595;52.542;11.974;2023-02-28T02:39:31;7.70;;;4.37;;
16957;SDS011;8595;52.542;11.974;2023-02-28T02:42:09;5.87;;;4.90;;
16957;SDS011;8595;52.542;11.974;2023-02-28T02:44:42;5.87;;;4.17;;
16957;SDS011;8595;52.542;11.974;2023-02-28T02:47:14;6.77;;;4.60;;
16957;SDS011;8595;52.542;11.974;2023-02-28T02:49:45;6.20;;;5.00;;
16957;SDS011;8595;52.542;11.974;2023-02-28T02:52:16;12.60;;;7.10;;
16957;SDS011;8595;52.542;11.974;2023-02-28T02:54:50;14.27;;;7.57;;
16957;SDS011;8595;52.542;11.974;2023-02-28T02:57:21;16.00;;;8.13;;
16957;SDS011;8595;52.542;11.974;2023-02-28T02:59:51;15.60;;;9.17;;
16957;SDS011;8595;52.542;11.974;2023-02-28T03:02:19;10.17;;;6.70;;
16957;SDS011;8595;52.542;11.974;2023-02-28T03:04:50;7.87;;;6.63;;
16957;SDS011;8595;52.542;11.974;2023-02-28T03:07:19;10.43;;;6.37;;
16957;SDS011;8595;52.542;11.974;2023-02-28T03:09:50;8.83;;;5.53;;
16957;SDS011;8595;52.542;11.974;2023-02-28T03:12:18;11.87;;;7.97;;
16957;SDS011;8595;52.542;11.974;2023-02-28T03:14:50;12.60;;;8.00;;
16957;SDS011;8595;52.542;11.974;2023-02-28T03:20:17;12.63;;;6.90;;
16957;SDS011;8595;52.542;11.974;2023-02-28T03:23:01;8.67;;;5.27;;
16957;SDS011;8595;52.542;11.974;2023-02-28T03:25:41;12.53;;;6.20;;
16957;SDS011;8595;52.542;11.974;2023-02-28T03:28:17;11.13;;;7.20;;
16957;SDS011;8595;52.542;11.974;2023-02-28T03:30:51;11.07;;;5.70;;
16957;SDS011;8595;52.542;11.974;2023-02-28T03:33:21;10.87;;;6.80;;
16957;SDS011;8595;52.542;11.974;2023-02-28T03:35:54;16.33;;;9.07;;
16957;SDS011;8595;52.542;11.974;2023-02-28T03:38:25;16.30;;;9.77;;
16957;SDS011;8595;52.542;11.974;2023-02-28T03:40:58;12.77;;;7.60;;
16957;SDS011;8595;52.542;11.974;2023-02-28T03:43:29;10.67;;;7.27;;
16957;SDS011;8595;52.542;11.974;2023-02-28T03:46:05;9.70;;;6.47;;
16957;SDS011;8595;52.542;11.974;2023-02-28T03:48:36;7.10;;;5.80;;
16957;SDS011;8595;52.542;11.974;2023-02-28T03:51:08;7.87;;;5.17;;
16957;SDS011;8595;52.542;11.974;2023-02-28T03:53:42;7.73;;;4.93;;
16957;SDS011;8595;52.542;11.974;2023-02-28T03:56:13;9.90;;;5.57;;
16957;SDS011;8595;52.542;11.974;2023-02-28T03:58:46;10.60;;;6.30;;
16957;SDS011;8595;52.542;11.974;2023-02-28T04:01:18;9.87;;;7.00;;
16957;SDS011;8595;52.542;11.974;2023-02-28T04:03:49;6.87;;;5.30;;
16957;SDS011;8595;52.542;11.974;2023-02-28T04:06:20;9.70;;;7.30;;
16957;SDS011;8595;52.542;11.974;2023-02-28T04:08:48;8.73;;;6.97;;
16957;SDS011;8595;52.542;11.974;2023-02-28T04:11:18;7.63;;;5.80;;
16957;SDS011;8595;52.542;11.974;2023-02-28T04:13:47;10.10;;;6.80;;
16957;SDS011;8595;52.542;11.974;2023-02-28T04:16:14;8.27;;;6.13;;
16957;SDS011;8595;52.542;11.974;2023-02-28T04:18:42;7.23;;;6.20;;
16957;SDS011;8595;52.542;11.974;2023-02-28T04:21:09;8.90;;;6.10;;
16957;SDS011;8595;52.542;11.974;2023-02-28T04:23:39;13.57;;;7.43;;
16957;SDS011;8595;52.542;11.974;2023-02-28T04:26:06;11.93;;;6.67;;
16957;SDS011;8595;52.542;11.974;2023-02-28T04:28:33;11.60;;;7.23;;
16957;SDS011;8595;52.542;11.974;2023-02-28T04:31:00;24.93;;;11.47;;
16957;SDS011;8595;52.542;11.974;2023-02-28T04:33:29;29.27;;;14.60;;
16957;SDS011;8595;52.542;11.974;2023-02-28T04:35:58;19.23;;;10.47;;
16957;SDS011;8595;52.542;11.974;2023-02-28T04:38:26;20.83;;;10.57;;
16957;SDS011;8595;52.542;11.974;2023-02-28T04:40:56;18.77;;;9.50;;
16957;SDS011;8595;52.542;11.974;2023-02-28T04:43:23;8.90;;;5.33;;
16957;SDS011;8595;52.542;11.974;2023-02-28T04:45:50;6.27;;;5.13;;
16957;SDS011;8595;52.542;11.974;2023-02-28T04:48:16;7.27;;;5.10;;
16957;SDS011;8595;52.542;11.974;2023-02-28T04:50:44;8.33;;;5.73;;
16957;SDS011;8595;52.542;11.974;2023-02-28T04:53:11;9.53;;;5.90;;
16957;SDS011;8595;52.542;11.974;2023-02-28T04:55:38;12.97;;;8.60;;
16957;SDS011;8595;52.542;11.974;2023-02-28T04:58:08;14.60;;;8.60;;
16957;SDS011;8595;52.542;11.974;2023-02-28T05:00:35;11.13;;;7.37;;
16957;SDS011;8595;52.542;11.974;2023-02-28T05:03:01;9.70;;;5.87;;
16957;SDS011;8595;52.542;11.974;2023-02-28T05:05:28;6.00;;;5.37;;
16957;SDS011;8595;52.542;11.974;2023-02-28T05:07:55;7.60;;;5.87;;
16957;SDS011;8595;52.542;11.974;2023-02-28T05:10:22;8.00;;;5.73;;
16957;SDS011;8595;52.542;11.974;2023-02-28T05:12:49;8.33;;;5.30;;
16957;SDS011;8595;52.542;11.974;2023-02-28T05:15:17;6.93;;;5.30;;
16957;SDS011;8595;52.542;11.974;2023-02-28T05:17:44;9.23;;;5.47;;
16957;SDS011;8595;52.542;11.974;2023-02-28T05:20:13;7.80;;;5.57;;
16957;SDS011;8595;52.542;11.974;2023-02-28T05:22:40;8.83;;;5.60;;
16957;SDS011;8595;52.542;11.974;2023-02-28T05:25:08;8.40;;;6.00;;
16957;SDS011;8595;52.542;11.974;2023-02-28T05:27:38;7.60;;;5.57;;
16957;SDS011;8595;52.542;11.974;2023-02-28T05:30:06;10.10;;;5.97;;
16957;SDS011;8595;52.542;11.974;2023-02-28T05:32:36;10.53;;;5.77;;
16957;SDS011;8595;52.542;11.974;2023-02-28T05:35:04;7.03;;;4.77;;
16957;SDS011;8595;52.542;11.974;2023-02-28T05:37:31;8.83;;;5.40;;
16957;SDS011;8595;52.542;11.974;2023-02-28T05:39:58;5.17;;;4.63;;
16957;SDS011;8595;52.542;11.974;2023-02-28T05:42:25;7.10;;;5.57;;
16957;SDS011;8595;52.542;11.974;2023-02-28T05:44:52;6.50;;;5.13;;
16957;SDS011;8595;52.542;11.974;2023-02-28T05:47:19;6.20;;;4.70;;
16957;SDS011;8595;52.542;11.974;2023-02-28T05:49:49;7.20;;;5.37;;
16957;SDS011;8595;52.542;11.974;2023-02-28T05:52:16;8.90;;;5.57;;
16957;SDS011;8595;52.542;11.974;2023-02-28T05:54:43;10.40;;;5.93;;
16957;SDS011;8595;52.542;11.974;2023-02-28T05:57:10;7.30;;;5.87;;
16957;SDS011;8595;52.542;11.974;2023-02-28T05:59:36;9.17;;;6.53;;
16957;SDS011;8595;52.542;11.974;2023-02-28T06:02:04;7.67;;;6.17;;
16957;SDS011;8595;52.542;11.974;2023-02-28T06:04:32;13.93;;;6.97;;
16957;SDS011;8595;52.542;11.974;2023-02-28T06:07:00;11.33;;;8.00;;
16957;SDS011;8595;52.542;11.974;2023-02-28T06:09:28;13.60;;;7.20;;
16957;SDS011;8595;52.542;11.974;2023-02-28T06:11:57;17.20;;;7.10;;
16957;SDS011;8595;52.542;11.974;2023-02-28T06:14:24;10.77;;;6.57;;
16957;SDS011;8595;52.542;11.974;2023-02-28T06:16:51;15.43;;;8.43;;
16957;SDS011;8595;52.542;11.974;2023-02-28T06:19:18;15.97;;;9.67;;
16957;SDS011;8595;52.542;11.974;2023-02-28T06:21:44;23.00;;;11.77;;
16957;SDS011;8595;52.542;11.974;2023-02-28T06:24:17;22.87;;;11.40;;
16957;SDS011;8595;52.542;11.974;2023-02-28T06:26:44;26.23;;;13.63;;
16957;SDS011;8595;52.542;11.974;2023-02-28T06:29:11;23.07;;;11.37;;
16957;SDS011;8595;52.542;11.974;2023-02-28T06:31:43;17.40;;;9.23;;
16957;SDS011;8595;52.542;11.974;2023-02-28T06:34:11;15.67;;;8.30;;
16957;SDS011;8595;52.542;11.974;2023-02-28T06:36:39;10.77;;;6.40;;
16957;SDS011;8595;52.542;11.974;2023-02-28T06:39:06;8.30;;;6.37;;
16957;SDS011;8595;52.542;11.974;2023-02-28T06:41:35;11.60;;;5.80;;
16957;SDS011;8595;52.542;11.974;2023-02-28T06:44:05;10.27;;;6.70;;
16957;SDS011;8595;52.542;11.974;2023-02-28T06:46:38;8.33;;;5.90;;
16957;SDS011;8595;52.542;11.974;2023-02-28T06:49:05;8.30;;;4.70;;
16957;SDS011;8595;52.542;11.974;2023-02-28T06:51:34;11.47;;;6.10;;
16957;SDS011;8595;52.542;11.974;2023-02-28T06:54:04;7.27;;;5.03;;
16957;SDS011;8595;52.542;11.974;2023-02-28T06:56:35;7.83;;;5.03;;
16957;SDS011;8595;52.542;11.974;2023-02-28T06:59:02;6.77;;;4.87;;
16957;SDS011;8595;52.542;11.974;2023-02-28T07:01:30;8.63;;;5.27;;
16957;SDS011;8595;52.542;11.974;2023-02-28T07:03:57;9.10;;;4.53;;
16957;SDS011;8595;52.542;11.974;2023-02-28T07:06:25;6.87;;;4.80;;
16957;SDS011;8595;52.542;11.974;2023-02-28T07:08:53;8.47;;;5.63;;
16957;SDS011;8595;52.542;11.974;2023-02-28T07:11:20;7.40;;;4.83;;
16957;SDS011;8595;52.542;11.974;2023-02-28T07:13:54;7.77;;;5.10;;
16957;SDS011;8595;52.542;11.974;2023-02-28T07:16:25;8.47;;;4.57;;
16957;SDS011;8595;52.542;11.974;2023-02-28T07:18:52;7.60;;;4.47;;
16957;SDS011;8595;52.542;11.974;2023-02-28T07:21:20;8.63;;;5.00;;
16957;SDS011;8595;52.542;11.974;2023-02-28T07:23:47;7.20;;;4.67;;
16957;SDS011;8595;52.542;11.974;2023-02-28T07:26:15;7.53;;;4.80;;
16957;SDS011;8595;52.542;11.974;2023-02-28T07:28:43;7.93;;;4.90;;
16957;SDS011;8595;52.542;11.974;2023-02-28T07:31:13;7.93;;;4.67;;
16957;SDS011;8595;52.542;11.974;2023-02-28T07:33:42;6.67;;;4.77;;
16957;SDS011;8595;52.542;11.974;2023-02-28T07:36:10;8.93;;;5.10;;
16957;SDS011;8595;52.542;11.974;2023-02-28T07:38:40;6.73;;;5.37;;
16957;SDS011;8595;52.542;11.974;2023-02-28T07:41:08;6.97;;;5.00;;
16957;SDS011;8595;52.542;11.974;2023-02-28T07:43:36;5.93;;;4.95;;
16957;SDS011;8595;52.542;11.974;2023-02-28T07:46:04;6.80;;;5.27;;
16957;SDS011;8595;52.542;11.974;2023-02-28T07:48:34;8.07;;;5.73;;
16957;SDS011;8595;52.542;11.974;2023-02-28T07:51:01;8.27;;;5.43;;
16957;SDS011;8595;52.542;11.974;2023-02-28T07:53:30;9.73;;;5.83;;
16957;SDS011;8595;52.542;11.974;2023-02-28T07:55:58;6.35;;;5.57;;
16957;SDS011;8595;52.542;11.974;2023-02-28T07:58:26;7.53;;;5.70;;
16957;SDS011;8595;52.542;11.974;2023-02-28T08:00:53;8.32;;;5.63;;
16957;SDS011;8595;52.542;11.974;2023-02-28T08:03:22;10.00;;;6.18;;
16957;SDS011;8595;52.542;11.974;2023-02-28T08:05:51;7.95;;;5.35;;
16957;SDS011;8595;52.542;11.974;2023-02-28T08:08:22;8.80;;;6.55;;
16957;SDS011;8595;52.542;11.974;2023-02-28T08:10:49;10.07;;;7.07;;
16957;SDS011;8595;52.542;11.974;2023-02-28T08:13:18;9.05;;;6.18;;
16957;SDS011;8595;52.542;11.974;2023-02-28T08:15:45;9.38;;;6.32;;
16957;SDS011;8595;52.542;11.974;2023-02-28T08:18:12;8.10;;;6.28;;
16957;SDS011;8595;52.542;11.974;2023-02-28T08:20:39;7.57;;;6.07;;
16957;SDS011;8595;52.542;11.974;2023-02-28T08:23:07;10.02;;;5.88;;
16957;SDS011;8595;52.542;11.974;2023-02-28T08:25:34;8.70;;;5.78;;
16957;SDS011;8595;52.542;11.974;2023-02-28T08:28:00;7.57;;;5.75;;
16957;SDS011;8595;52.542;11.974;2023-02-28T08:30:27;7.50;;;5.60;;
16957;SDS011;8595;52.542;11.974;2023-02-28T08:32:54;7.90;;;6.30;;
16957;SDS011;8595;52.542;11.974;2023-02-28T08:35:22;10.02;;;6.47;;
16957;SDS011;8595;52.542;11.974;2023-02-28T08:37:49;8.75;;;6.07;;
16957;SDS011;8595;52.542;11.974;2023-02-28T08:40:18;7.80;;;6.53;;
16957;SDS011;8595;52.542;11.974;2023-02-28T08:42:44;8.68;;;6.15;;
16957;SDS011;8595;52.542;11.974;2023-02-28T08:45:12;10.07;;;7.13;;
16957;SDS011;8595;52.542;11.974;2023-02-28T08:47:40;10.52;;;6.85;;
16957;SDS011;8595;52.542;11.974;2023-02-28T08:50:08;9.38;;;7.25;;
16957;SDS011;8595;52.542;11.974;2023-02-28T08:52:35;10.43;;;6.75;;
16957;SDS011;8595;52.542;11.974;2023-02-28T08:55:03;9.52;;;6.88;;
16957;SDS011;8595;52.542;11.974;2023-02-28T08:57:32;11.05;;;6.63;;
16957;SDS011;8595;52.542;11.974;2023-02-28T08:59:58;9.15;;;7.53;;
16957;SDS011;8595;52.542;11.974;2023-02-28T09:02:26;9.75;;;7.20;;
16957;SDS011;8595;52.542;11.974;2023-02-28T09:04:53;10.13;;;7.72;;
16957;SDS011;8595;52.542;11.974;2023-02-28T09:07:20;10.65;;;7.10;;
16957;SDS011;8595;52.542;11.974;2023-02-28T09:09:46;8.93;;;7.25;;
16957;SDS011;8595;52.542;11.974;2023-02-28T09:12:24;10.18;;;7.65;;
16957;SDS011;8595;52.542;11.974;2023-02-28T09:14:53;8.88;;;6.80;;
16957;SDS011;8595;52.542;11.974;2023-02-28T09:17:20;8.88;;;6.22;;
16957;SDS011;8595;52.542;11.974;2023-02-28T09:19:47;8.52;;;7.30;;
16957;SDS011;8595;52.542;11.974;2023-02-28T09:22:15;8.05;;;5.85;;
16957;SDS011;8595;52.542;11.974;2023-02-28T09:24:42;8.15;;;6.88;;
16957;SDS011;8595;52.542;11.974;2023-02-28T09:27:09;8.00;;;5.55;;
16957;SDS011;8595;52.542;11.974;2023-02-28T09:29:36;7.30;;;5.93;;
16957;SDS011;8595;52.542;11.974;2023-02-28T09:32:05;7.00;;;5.75;;
16957;SDS011;8595;52.542;11.974;2023-02-28T09:34:32;6.97;;;6.28;;
16957;SDS011;8595;52.542;11.974;2023-02-28T09:36:58;8.07;;;6.13;;
16957;SDS011;8595;52.542;11.974;2023-02-28T09:39:25;6.10;;;5.50;;
16957;SDS011;8595;52.542;11.974;2023-02-28T09:41:54;7.00;;;5.80;;
16957;SDS011;8595;52.542;11.974;2023-02-28T09:44:23;6.72;;;5.78;;
16957;SDS011;8595;52.542;11.974;2023-02-28T09:46:55;7.55;;;6.05;;
16957;SDS011;8595;52.542;11.974;2023-02-28T09:49:28;6.03;;;5.00;;
16957;SDS011;8595;52.542;11.974;2023-02-28T09:52:01;12.18;;;11.18;;
16957;SDS011;8595;52.542;11.974;2023-02-28T09:54:31;10.35;;;9.48;;
16957;SDS011;8595;52.542;11.974;2023-02-28T09:56:59;5.75;;;5.13;;
16957;SDS011;8595;52.542;11.974;2023-02-28T09:59:34;6.65;;;5.30;;
16957;SDS011;8595;52.542;11.974;2023-02-28T10:02:11;7.43;;;5.60;;
16957;SDS011;8595;52.542;11.974;2023-02-28T10:04:47;8.30;;;7.57;;
16957;SDS011;8595;52.542;11.974;2023-02-28T10:07:22;8.85;;;7.50;;
16957;SDS011;8595;52.542;11.974;2023-02-28T10:10:01;6.05;;;4.22;;
16957;SDS011;8595;52.542;11.974;2023-02-28T10:12:33;8.68;;;6.15;;
16957;SDS011;8595;52.542;11.974;2023-02-28T10:15:05;9.52;;;5.65;;
16957;SDS011;8595;52.542;11.974;2023-02-28T10:17:40;7.40;;;5.30;;
16957;SDS011;8595;52.542;11.974;2023-02-28T10:20:11;7.05;;;5.55;;
16957;SDS011;8595;52.542;11.974;2023-02-28T10:22:52;4.93;;;4.40;;
16957;SDS011;8595;52.542;11.974;2023-02-28T10:25:25;5.05;;;4.18;;
16957;SDS011;8595;52.542;11.974;2023-02-28T10:27:54;6.13;;;4.18;;
16957;SDS011;8595;52.542;11.974;2023-02-28T10:30:27;5.85;;;3.90;;
16957;SDS011;8595;52.542;11.974;2023-02-28T10:32:54;7.20;;;3.17;;
16957;SDS011;8595;52.542;11.974;2023-02-28T10:35:23;2.90;;;2.67;;
16957;SDS011;8595;52.542;11.974;2023-02-28T10:37:53;2.53;;;2.33;;
16957;SDS011;8595;52.542;11.974;2023-02-28T10:40:31;3.40;;;2.38;;
16957;SDS011;8595;52.542;11.974;2023-02-28T10:43:00;3.20;;;2.85;;
16957;SDS011;8595;52.542;11.974;2023-02-28T10:45:29;3.55;;;3.00;;
16957;SDS011;8595;52.542;11.974;2023-02-28T10:47:59;5.28;;;3.60;;
16957;SDS011;8595;52.542;11.974;2023-02-28T10:50:32;3.00;;;2.70;;
16957;SDS011;8595;52.542;11.974;2023-02-28T10:53:05;3.70;;;2.47;;
16957;SDS011;8595;52.542;11.974;2023-02-28T10:55:41;4.10;;;2.88;;
16957;SDS011;8595;52.542;11.974;2023-02-28T10:58:18;4.75;;;2.97;;
16957;SDS011;8595;52.542;11.974;2023-02-28T11:00:48;3.75;;;3.25;;
16957;SDS011;8595;52.542;11.974;2023-02-28T11:03:23;4.22;;;3.08;;
16957;SDS011;8595;52.542;11.974;2023-02-28T11:05:53;3.95;;;2.90;;
16957;SDS011;8595;52.542;11.974;2023-02-28T11:08:19;5.65;;;3.10;;
16957;SDS011;8595;52.542;11.974;2023-02-28T11:10:47;4.28;;;2.80;;
16957;SDS011;8595;52.542;11.974;2023-02-28T11:13:20;4.22;;;2.88;;
16957;SDS011;8595;52.542;11.974;2023-02-28T11:15:50;3.63;;;2.90;;
16957;SDS011;8595;52.542;11.974;2023-02-28T11:18:21;6.72;;;2.83;;
16957;SDS011;8595;52.542;11.974;2023-02-28T11:20:55;4.03;;;2.72;;
16957;SDS011;8595;52.542;11.974;2023-02-28T11:23:24;3.30;;;2.63;;
16957;SDS011;8595;52.542;11.974;2023-02-28T11:25:54;4.75;;;2.78;;
16957;SDS011;8595;52.542;11.974;2023-02-28T11:28:25;4.13;;;2.38;;
16957;SDS011;8595;52.542;11.974;2023-02-28T11:31:03;4.80;;;3.00;;
16957;SDS011;8595;52.542;11.974;2023-02-28T11:33:32;4.88;;;2.80;;
16957;SDS011;8595;52.542;11.974;2023-02-28T11:36:11;4.88;;;2.90;;
16957;SDS011;8595;52.542;11.974;2023-02-28T11:38:39;4.35;;;2.70;;
16957;SDS011;8595;52.542;11.974;2023-02-28T11:41:13;4.22;;;2.60;;
16957;SDS011;8595;52.542;11.974;2023-02-28T11:43:57;3.00;;;2.55;;
16957;SDS011;8595;52.542;11.974;2023-02-28T11:46:33;3.40;;;2.67;;
16957;SDS011;8595;52.542;11.974;2023-02-28T11:49:07;3.38;;;2.60;;
16957;SDS011;8595;52.542;11.974;2023-02-28T11:51:49;3.80;;;2.80;;
16957;SDS011;8595;52.542;11.974;2023-02-28T11:54:34;3.05;;;2.75;;
16957;SDS011;8595;52.542;11.974;2023-02-28T11:57:16;3.88;;;2.70;;
16957;SDS011;8595;52.542;11.974;2023-02-28T12:00:07;3.78;;;3.05;;
16957;SDS011;8595;52.542;11.974;2023-02-28T12:02:49;3.60;;;2.67;;
16957;SDS011;8595;52.542;11.974;2023-02-28T12:05:24;4.15;;;2.92;;
16957;SDS011;8595;52.542;11.974;2023-02-28T12:08:01;4.72;;;3.10;;
16957;SDS011;8595;52.542;11.974;2023-02-28T12:10:37;4.32;;;2.85;;
16957;SDS011;8595;52.542;11.974;2023-02-28T12:13:12;5.75;;;3.38;;
16957;SDS011;8595;52.542;11.974;2023-02-28T12:18:53;4.13;;;3.28;;
16957;SDS011;8595;52.542;11.974;2023-02-28T12:21:35;5.38;;;3.85;;
16957;SDS011;8595;52.542;11.974;2023-02-28T12:24:35;3.92;;;3.20;;
16957;SDS011;8595;52.542;11.974;2023-02-28T12:27:21;6.25;;;3.88;;
16957;SDS011;8595;52.542;11.974;2023-02-28T12:29:52;3.55;;;3.13;;
16957;SDS011;8595;52.542;11.974;2023-02-28T12:32:23;3.95;;;2.97;;
16957;SDS011;8595;52.542;11.974;2023-02-28T12:34:54;5.00;;;3.47;;
16957;SDS011;8595;52.542;11.974;2023-02-28T12:37:25;4.95;;;3.22;;
16957;SDS011;8595;52.542;11.974;2023-02-28T12:39:59;3.45;;;2.80;;
16957;SDS011;8595;52.542;11.974;2023-02-28T12:42:36;5.32;;;3.55;;
16957;SDS011;8595;52.542;11.974;2023-02-28T12:45:10;3.85;;;2.80;;
16957;SDS011;8595;52.542;11.974;2023-02-28T12:47:38;4.68;;;3.60;;
16957;SDS011;8595;52.542;11.974;2023-02-28T12:50:10;4.45;;;3.28;;
16957;SDS011;8595;52.542;11.974;2023-02-28T12:52:42;4.25;;;2.88;;
16957;SDS011;8595;52.542;11.974;2023-02-28T12:55:23;4.38;;;3.45;;
16957;SDS011;8595;52.542;11.974;2023-02-28T12:57:58;3.47;;;2.83;;
16957;SDS011;8595;52.542;11.974;2023-02-28T13:00:35;5.05;;;3.30;;
16957;SDS011;8595;52.542;11.974;2023-02-28T13:03:13;3.92;;;3.33;;
16957;SDS011;8595;52.542;11.974;2023-02-28T13:06:10;3.83;;;3.40;;
16957;SDS011;8595;52.542;11.974;2023-02-28T13:09:05;4.20;;;3.30;;
16957;SDS011;8595;52.542;11.974;2023-02-28T13:11:40;4.25;;;3.70;;
16957;SDS011;8595;52.542;11.974;2023-02-28T13:14:19;4.22;;;3.45;;
16957;SDS011;8595;52.542;11.974;2023-02-28T13:16:56;4.22;;;3.20;;
16957;SDS011;8595;52.542;11.974;2023-02-28T13:19:34;4.05;;;3.58;;
16957;SDS011;8595;52.542;11.974;2023-02-28T13:22:04;3.72;;;3.20;;
16957;SDS011;8595;52.542;11.974;2023-02-28T13:24:40;4.85;;;3.40;;
16957;SDS011;8595;52.542;11.974;2023-02-28T13:33:27;3.92;;;3.25;;
16957;SDS011;8595;52.542;11.974;2023-02-28T13:36:08;3.53;;;3.22;;
16957;SDS011;8595;52.542;11.974;2023-02-28T13:38:38;3.35;;;3.03;;
16957;SDS011;8595;52.542;11.974;2023-02-28T13:44:09;5.10;;;2.83;;
16957;SDS011;8595;52.542;11.974;2023-02-28T13:49:41;4.43;;;3.60;;
16957;SDS011;8595;52.542;11.974;2023-02-28T13:52:10;4.63;;;3.60;;
16957;SDS011;8595;52.542;11.974;2023-02-28T13:54:48;3.58;;;3.28;;
16957;SDS011;8595;52.542;11.974;2023-02-28T13:57:27;4.47;;;3.25;;
16957;SDS011;8595;52.542;11.974;2023-02-28T14:00:07;12.52;;;7.75;;
16957;SDS011;8595;52.542;11.974;2023-02-28T14:02:47;6.95;;;4.15;;
16957;SDS011;8595;52.542;11.974;2023-02-28T14:05:35;5.60;;;3.60;;
16957;SDS011;8595;52.542;11.974;2023-02-28T14:08:06;3.60;;;3.30;;
16957;SDS011;8595;52.542;11.974;2023-02-28T14:10:39;3.95;;;3.22;;
16957;SDS011;8595;52.542;11.974;2023-02-28T14:16:11;3.63;;;3.20;;
16957;SDS011;8595;52.542;11.974;2023-02-28T14:18:41;3.90;;;3.40;;
16957;SDS011;8595;52.542;11.974;2023-02-28T14:21:16;5.90;;;3.15;;
16957;SDS011;8595;52.542;11.974;2023-02-28T14:27:07;7.30;;;3.28;;
16957;SDS011;8595;52.542;11.974;2023-02-28T14:29:51;3.78;;;3.33;;
16957;SDS011;8595;52.542;11.974;2023-02-28T14:32:43;4.63;;;3.75;;
16957;SDS011;8595;52.542;11.974;2023-02-28T14:35:27;5.80;;;3.08;;
16957;SDS011;8595;52.542;11.974;2023-02-28T14:38:12;4.38;;;3.28;;
16957;SDS011;8595;52.542;11.974;2023-02-28T14:40:43;2.92;;;2.63;;
16957;SDS011;8595;52.542;11.974;2023-02-28T14:43:18;5.28;;;3.15;;
16957;SDS011;8595;52.542;11.974;2023-02-28T14:45:48;22.58;;;12.63;;
16957;SDS011;8595;52.542;11.974;2023-02-28T14:48:18;8.73;;;5.47;;
16957;SDS011;8595;52.542;11.974;2023-02-28T14:50:48;6.63;;;5.57;;
16957;SDS011;8595;52.542;11.974;2023-02-28T14:53:17;4.32;;;3.47;;
16957;SDS011;8595;52.542;11.974;2023-02-28T14:55:46;4.20;;;3.15;;
16957;SDS011;8595;52.542;11.974;2023-02-28T14:58:20;5.00;;;3.28;;
16957;SDS011;8595;52.542;11.974;2023-02-28T15:00:50;4.80;;;3.38;;
16957;SDS011;8595;52.542;11.974;2023-02-28T15:03:20;3.40;;;3.08;;
16957;SDS011;8595;52.542;11.974;2023-02-28T15:05:52;3.55;;;3.13;;
16957;SDS011;8595;52.542;11.974;2023-02-28T15:08:21;3.53;;;3.22;;
16957;SDS011;8595;52.542;11.974;2023-02-28T15:10:50;3.97;;;3.00;;
16957;SDS011;8595;52.542;11.974;2023-02-28T15:13:19;4.50;;;3.70;;
16957;SDS011;8595;52.542;11.974;2023-02-28T15:15:48;4.82;;;3.97;;
16957;SDS011;8595;52.542;11.974;2023-02-28T15:18:25;6.00;;;3.80;;
16957;SDS011;8595;52.542;11.974;2023-02-28T15:21:02;5.57;;;4.05;;
16957;SDS011;8595;52.542;11.974;2023-02-28T15:23:32;5.18;;;3.83;;
16957;SDS011;8595;52.542;11.974;2023-02-28T15:26:03;4.50;;;3.30;;
16957;SDS011;8595;52.542;11.974;2023-02-28T15:28:31;3.97;;;3.33;;
16957;SDS011;8595;52.542;11.974;2023-02-28T15:30:59;3.60;;;3.30;;
16957;SDS011;8595;52.542;11.974;2023-02-28T15:33:30;5.90;;;3.33;;
16957;SDS011;8595;52.542;11.974;2023-02-28T15:36:06;5.28;;;4.55;;
16957;SDS011;8595;52.542;11.974;2023-02-28T15:38:38;4.32;;;3.90;;
16957;SDS011;8595;52.542;11.974;2023-02-28T15:41:05;4.78;;;3.97;;
16957;SDS011;8595;52.542;11.974;2023-02-28T15:46:55;3.90;;;3.17;;